createdAt,value
2023-01-02T00:01:12.449Z,56.64
2023-01-02T00:03:40.061Z,56.76
2023-01-02T00:06:08.080Z,56.77
2023-01-02T00:08:35.556Z,56.69
2023-01-02T00:11:02.872Z,56.60
2023-01-02T00:13:30.371Z,56.89
2023-01-02T00:15:57.897Z,56.89
2023-01-02T00:18:25.319Z,56.80
2023-01-02T00:20:52.758Z,56.68
2023-01-02T00:23:20.204Z,56.79
2023-01-02T00:25:48.952Z,56.76
2023-01-02T00:28:16.332Z,56.72
2023-01-02T00:30:43.739Z,56.95
2023-01-02T00:33:11.140Z,56.67
2023-01-02T00:35:39.090Z,56.80
2023-01-02T00:38:06.621Z,57.01
2023-01-02T00:40:34.877Z,56.85
2023-01-02T00:43:02.330Z,56.70
2023-01-02T00:45:29.727Z,57.18
2023-01-02T00:47:57.060Z,56.89
2023-01-02T00:50:24.478Z,56.68
2023-01-02T00:52:51.812Z,57.07
2023-01-02T00:55:19.165Z,56.84
2023-01-02T00:57:46.561Z,57.01
2023-01-02T01:00:19.987Z,56.77
2023-01-02T01:02:56.170Z,57.04
2023-01-02T01:05:25.155Z,56.92
2023-01-02T01:07:54.624Z,57.00
2023-01-02T01:10:23.063Z,56.79
2023-01-02T01:12:50.522Z,56.77
2023-01-02T01:15:18.163Z,57.18
2023-01-02T01:17:46.009Z,57.20
2023-01-02T01:20:13.355Z,57.22
2023-01-02T01:22:40.743Z,57.26
2023-01-02T01:25:08.572Z,57.30
2023-01-02T01:27:36.093Z,57.55
2023-01-02T01:30:05.449Z,57.43
2023-01-02T01:32:32.918Z,57.65
2023-01-02T01:35:00.317Z,57.18
2023-01-02T01:37:27.668Z,57.62
2023-01-02T01:39:56.785Z,57.67
2023-01-02T01:42:24.500Z,57.72
2023-01-02T01:44:54.192Z,57.29
2023-01-02T01:47:27.811Z,57.95
2023-01-02T01:50:14.146Z,57.86
2023-01-02T01:52:47.831Z,57.93
2023-01-02T01:55:28.986Z,57.90
2023-01-02T01:58:21.507Z,57.55
2023-01-02T02:00:50.456Z,57.38
2023-01-02T02:03:27.069Z,57.52
2023-01-02T02:05:56.880Z,57.38
2023-01-02T02:08:33.738Z,57.10
2023-01-02T02:11:01.338Z,57.23
2023-01-02T02:13:29.877Z,57.33
2023-01-02T02:16:15.311Z,57.02
2023-01-02T02:19:10.523Z,57.01
2023-01-02T02:22:01.038Z,57.00
2023-01-02T02:24:54.678Z,57.02
2023-01-02T02:27:51.301Z,56.87
2023-01-02T02:30:23.980Z,57.04
2023-01-02T02:33:36.931Z,57.00
2023-01-02T02:36:32.405Z,57.06
2023-01-02T02:39:38.124Z,56.79
2023-01-02T02:42:18.480Z,57.04
2023-01-02T02:45:14.528Z,56.82
2023-01-02T02:47:56.141Z,57.04
2023-01-02T02:50:29.450Z,56.79
2023-01-02T02:53:10.933Z,56.90
2023-01-02T02:55:44.674Z,56.87
2023-01-02T02:58:14.941Z,57.06
2023-01-02T03:00:42.560Z,57.33
2023-01-02T03:03:20.755Z,57.02
2023-01-02T03:06:10.504Z,57.23
2023-01-02T03:08:45.128Z,57.37
2023-01-02T03:11:13.632Z,57.11
2023-01-02T03:13:56.779Z,57.02
2023-01-02T03:16:33.644Z,57.26
2023-01-02T03:19:13.955Z,56.99
2023-01-02T03:22:03.537Z,56.98
2023-01-02T03:24:32.619Z,57.09
2023-01-02T03:27:04.745Z,57.39
2023-01-02T03:29:41.085Z,57.11
2023-01-02T03:32:17.574Z,57.19
2023-01-02T03:34:48.112Z,57.18
2023-01-02T03:37:23.385Z,57.30
2023-01-02T03:39:57.791Z,57.14
2023-01-02T03:43:12.827Z,57.39
2023-01-02T03:45:48.954Z,57.30
2023-01-02T03:48:43.950Z,57.56
2023-01-02T03:51:12.139Z,57.32
2023-01-02T03:53:41.151Z,57.51
2023-01-02T03:56:26.545Z,57.38
2023-01-02T03:59:04.181Z,57.64
2023-01-02T04:01:39.438Z,57.42
2023-01-02T04:04:24.869Z,57.35
2023-01-02T04:06:58.540Z,57.38
2023-01-02T04:09:29.402Z,57.78
2023-01-02T04:12:01.595Z,57.72
2023-01-02T04:14:41.443Z,57.82
2023-01-02T04:17:10.482Z,57.80
2023-01-02T04:19:52.288Z,57.51
2023-01-02T04:22:31.901Z,57.90
2023-01-02T04:25:10.649Z,57.39
2023-01-02T04:27:49.267Z,57.69
2023-01-02T04:30:16.715Z,57.46
2023-01-02T04:32:45.761Z,57.57
2023-01-02T04:35:22.559Z,57.69
2023-01-02T04:37:50.174Z,57.47
2023-01-02T04:40:30.877Z,57.62
2023-01-02T04:42:58.204Z,57.32
2023-01-02T04:45:25.532Z,57.60
2023-01-02T04:47:52.875Z,57.06
2023-01-02T04:50:20.294Z,57.35
2023-01-02T04:52:47.651Z,57.36
2023-01-02T04:55:15.041Z,57.16
2023-01-02T04:57:42.372Z,57.43
2023-01-02T05:00:10.297Z,57.19
2023-01-02T05:02:39.354Z,57.26
2023-01-02T05:05:08.811Z,57.08
2023-01-02T05:07:37.153Z,56.98
2023-01-02T05:10:05.796Z,57.32
2023-01-02T05:12:37.335Z,57.22
2023-01-02T05:15:06.889Z,57.00
2023-01-02T05:17:35.695Z,57.57
2023-01-02T05:20:05.642Z,57.25
2023-01-02T05:22:51.635Z,57.07
2023-01-02T05:25:19.090Z,57.02
2023-01-02T05:27:46.419Z,57.07
2023-01-02T05:30:13.782Z,57.16
2023-01-02T05:32:41.139Z,56.95
2023-01-02T05:35:08.916Z,57.07
2023-01-02T05:37:36.243Z,56.94
2023-01-02T05:40:04.009Z,56.63
2023-01-02T05:42:31.464Z,56.60
2023-01-02T05:44:58.807Z,56.53
2023-01-02T05:47:26.299Z,56.61
2023-01-02T05:49:53.661Z,56.40
2023-01-02T05:52:21.001Z,56.19
2023-01-02T05:54:48.487Z,56.19
2023-01-02T05:57:16.015Z,56.48
2023-01-02T05:59:43.344Z,55.99
2023-01-02T06:02:10.983Z,55.98
2023-01-02T06:04:38.440Z,56.05
2023-01-02T06:07:05.808Z,56.01
2023-01-02T06:09:33.144Z,56.08
2023-01-02T06:12:00.651Z,55.91
2023-01-02T06:14:28.012Z,55.71
2023-01-02T06:16:55.383Z,56.10
2023-01-02T06:19:22.782Z,55.80
2023-01-02T06:21:50.073Z,55.96
2023-01-02T06:24:17.456Z,55.69
2023-01-02T06:26:44.806Z,55.70
2023-01-02T06:29:13.029Z,55.80
2023-01-02T06:31:42.516Z,55.85
2023-01-02T06:34:12.330Z,55.85
2023-01-02T06:36:39.749Z,55.71
2023-01-02T06:39:07.129Z,55.89
2023-01-02T06:41:34.493Z,55.79
2023-01-02T06:44:01.899Z,55.70
2023-01-02T06:46:29.273Z,55.84
2023-01-02T06:48:56.711Z,55.59
2023-01-02T06:51:24.261Z,55.56
2023-01-02T06:53:52.058Z,55.89
2023-01-02T06:56:21.271Z,55.62
2023-01-02T06:58:49.122Z,55.52
2023-01-02T07:01:19.395Z,55.30
2023-01-02T07:03:47.123Z,55.36
2023-01-02T07:06:16.784Z,55.23
2023-01-02T07:08:44.736Z,55.29
2023-01-02T07:11:20.827Z,55.70
2023-01-02T07:13:49.959Z,55.91
2023-01-02T07:16:19.422Z,55.96
2023-01-02T07:18:46.869Z,55.80
2023-01-02T07:21:15.294Z,56.23
2023-01-02T07:23:42.880Z,55.78
2023-01-02T07:26:11.064Z,56.06
2023-01-02T07:28:39.113Z,55.87
2023-01-02T07:31:11.447Z,56.28
2023-01-02T07:33:39.088Z,56.10
2023-01-02T07:36:13.281Z,56.35
2023-01-02T07:38:40.994Z,56.49
2023-01-02T07:41:16.425Z,56.33
2023-01-02T07:43:45.304Z,56.50
2023-01-02T07:46:14.949Z,56.59
2023-01-02T07:48:42.451Z,56.03
2023-01-02T07:51:11.004Z,55.75
2023-01-02T07:53:39.052Z,55.86
2023-01-02T07:56:07.841Z,56.00
2023-01-02T07:58:35.499Z,55.94
2023-01-02T08:01:07.905Z,55.79
2023-01-02T08:03:35.828Z,55.50
2023-01-02T08:06:08.827Z,55.32
2023-01-02T08:08:36.538Z,55.07
2023-01-02T08:11:11.672Z,55.00
2023-01-02T08:13:39.252Z,54.93
2023-01-02T08:16:17.354Z,55.20
2023-01-02T08:18:45.207Z,55.15
2023-01-02T08:21:12.955Z,54.71
2023-01-02T08:23:41.360Z,54.94
2023-01-02T08:26:10.843Z,55.02
2023-01-02T08:28:40.219Z,54.92
2023-01-02T08:31:15.162Z,55.15
2023-01-02T08:33:42.698Z,54.85
2023-01-02T08:36:10.167Z,55.17
2023-01-02T08:38:37.916Z,55.06
2023-01-02T08:41:06.349Z,55.30
2023-01-02T08:43:35.615Z,54.84
2023-01-02T08:46:05.518Z,55.16
2023-01-02T08:48:33.766Z,55.02
2023-01-02T08:51:02.168Z,54.93
2023-01-02T08:53:29.558Z,54.90
2023-01-02T08:56:18.891Z,54.83
2023-01-02T08:58:56.673Z,55.08
2023-01-02T09:01:25.606Z,54.96
2023-01-02T09:03:54.217Z,54.90
2023-01-02T09:06:23.537Z,55.27
2023-01-02T09:08:55.508Z,54.96
2023-01-02T09:11:28.410Z,55.20
2023-01-02T09:13:57.171Z,55.16
2023-01-02T09:16:25.304Z,55.05
2023-01-02T09:18:53.168Z,55.25
2023-01-02T09:21:20.573Z,54.96
2023-01-02T09:23:48.155Z,55.20
2023-01-02T09:26:16.131Z,54.89
2023-01-02T09:28:43.715Z,55.10
2023-01-02T09:31:14.331Z,55.19
2023-01-02T09:33:43.020Z,55.33
2023-01-02T09:36:13.602Z,55.10
2023-01-02T09:38:41.015Z,55.09
2023-01-02T09:41:21.308Z,55.25
2023-01-02T09:43:53.628Z,55.39
2023-01-02T09:46:33.603Z,55.29
2023-01-02T09:49:02.567Z,55.07
2023-01-02T09:51:32.479Z,54.89
2023-01-02T09:54:00.942Z,55.27
2023-01-02T09:56:38.372Z,54.88
2023-01-02T09:59:32.087Z,54.98
2023-01-02T10:02:17.624Z,54.66
2023-01-02T10:05:03.710Z,54.80
2023-01-02T10:07:49.046Z,54.73
2023-01-02T10:10:16.406Z,54.88
2023-01-02T10:13:01.203Z,54.85
2023-01-02T10:15:30.711Z,54.71
2023-01-02T10:18:17.724Z,54.91
2023-01-02T10:20:51.245Z,54.61
2023-01-02T10:23:25.171Z,54.59
2023-01-02T10:26:02.425Z,54.47
2023-01-02T10:28:51.187Z,54.44
2023-01-02T10:31:31.443Z,54.63
2023-01-02T10:34:01.783Z,54.56
2023-01-02T10:36:32.152Z,54.68
2023-01-02T10:39:02.639Z,54.54
2023-01-02T10:41:31.510Z,54.44
2023-01-02T10:44:22.046Z,54.67
2023-01-02T10:46:49.427Z,54.61
2023-01-02T10:49:18.361Z,54.50
2023-01-02T10:51:50.993Z,54.59
2023-01-02T10:54:18.344Z,54.40
2023-01-02T10:56:50.221Z,54.37
2023-01-02T10:59:23.391Z,54.38
2023-01-02T11:01:59.154Z,54.36
2023-01-02T11:04:31.062Z,54.15
2023-01-02T11:07:01.327Z,54.26
2023-01-02T11:09:31.984Z,53.99
2023-01-02T11:12:12.480Z,53.81
2023-01-02T11:14:40.394Z,53.57
2023-01-02T11:17:16.352Z,53.53
2023-01-02T11:19:50.547Z,53.33
2023-01-02T11:22:20.771Z,53.20
2023-01-02T11:25:05.592Z,53.52
2023-01-02T11:27:36.806Z,53.04
2023-01-02T11:30:09.922Z,53.09
2023-01-02T11:32:40.074Z,53.24
2023-01-02T11:35:34.177Z,53.48
2023-01-02T11:38:02.641Z,53.39
2023-01-02T11:40:32.185Z,53.50
2023-01-02T11:43:26.485Z,53.37
2023-01-02T11:45:54.770Z,53.72
2023-01-02T11:48:24.659Z,53.69
2023-01-02T11:50:53.018Z,53.66
2023-01-02T11:53:25.075Z,53.58
2023-01-02T11:56:14.007Z,53.79
2023-01-02T11:58:58.651Z,53.48
2023-01-02T12:01:47.762Z,53.63
2023-01-02T12:04:16.100Z,53.56
2023-01-02T12:07:06.376Z,53.75
2023-01-02T12:10:05.962Z,53.79
2023-01-02T12:13:01.434Z,53.62
2023-01-02T12:15:53.675Z,53.76
2023-01-02T12:18:32.785Z,53.90
2023-01-02T12:21:08.619Z,53.74
2023-01-02T12:24:06.668Z,53.85
2023-01-02T12:26:46.057Z,53.74
2023-01-02T12:29:54.821Z,53.41
2023-01-02T12:32:57.283Z,53.43
2023-01-02T12:36:02.375Z,53.76
2023-01-02T12:39:08.181Z,53.53
2023-01-02T12:42:02.023Z,53.55
2023-01-02T12:44:50.682Z,53.80
2023-01-02T12:47:49.290Z,53.55
2023-01-02T12:50:46.902Z,53.59
2023-01-02T12:54:18.433Z,53.97
2023-01-02T12:56:53.001Z,53.75
2023-01-02T12:59:36.426Z,54.15
2023-01-02T13:02:43.657Z,54.04
2023-01-02T13:05:16.861Z,54.34
2023-01-02T13:07:54.829Z,54.02
2023-01-02T13:10:26.608Z,54.44
2023-01-02T13:12:57.776Z,54.35
2023-01-02T13:15:33.481Z,54.67
2023-01-02T13:18:00.970Z,54.71
2023-01-02T13:20:53.181Z,54.87
2023-01-02T13:23:31.674Z,54.69
2023-01-02T13:26:14.784Z,54.79
2023-01-02T13:29:19.043Z,55.03
2023-01-02T13:31:53.858Z,54.93
2023-01-02T13:34:25.966Z,54.92
2023-01-02T13:37:10.084Z,55.10
2023-01-02T13:39:41.293Z,55.08
2023-01-02T13:42:52.275Z,55.12
2023-01-02T13:45:33.241Z,54.98
2023-01-02T13:48:05.315Z,55.33
2023-01-02T13:50:40.915Z,55.52
2023-01-02T13:53:11.421Z,55.58
2023-01-02T13:55:41.758Z,55.33
2023-01-02T13:58:14.930Z,55.85
2023-01-02T14:00:54.380Z,55.43
2023-01-02T14:03:28.057Z,55.79
2023-01-02T14:05:58.860Z,55.65
2023-01-02T14:08:30.713Z,55.77
2023-01-02T14:11:19.912Z,55.60
2023-01-02T14:13:51.547Z,55.90
2023-01-02T14:16:25.092Z,56.02
2023-01-02T14:19:14.127Z,55.77
2023-01-02T14:21:58.814Z,55.61
2023-01-02T14:24:43.234Z,55.85
2023-01-02T14:27:16.647Z,56.15
2023-01-02T14:29:53.345Z,56.04
2023-01-02T14:32:23.989Z,56.10
2023-01-02T14:34:55.758Z,56.57
2023-01-02T14:37:33.513Z,56.18
2023-01-02T14:40:12.625Z,56.41
2023-01-02T14:43:01.779Z,56.75
2023-01-02T14:45:31.310Z,56.80
2023-01-02T14:48:06.692Z,56.59
2023-01-02T14:50:37.422Z,56.70
2023-01-02T14:53:24.951Z,56.77
2023-01-02T14:55:58.837Z,56.88
2023-01-02T14:58:31.294Z,56.96
2023-01-02T15:01:04.363Z,57.00
2023-01-02T15:03:55.403Z,57.07
2023-01-02T15:06:38.975Z,56.77
2023-01-02T15:09:13.398Z,56.85
2023-01-02T15:12:15.016Z,56.86
2023-01-02T15:14:43.264Z,56.28
2023-01-02T15:17:14.788Z,56.40
2023-01-02T15:19:42.711Z,56.43
2023-01-02T15:22:12.443Z,56.14
2023-01-02T15:24:39.993Z,55.94
2023-01-02T15:27:28.087Z,56.04
2023-01-02T15:29:59.282Z,55.81
2023-01-02T15:32:32.828Z,55.92
2023-01-02T15:35:35.151Z,55.59
2023-01-02T15:38:05.225Z,55.83
2023-01-02T15:40:35.648Z,56.01
2023-01-02T15:43:25.031Z,55.54
2023-01-02T15:45:53.000Z,55.58
2023-01-02T15:48:22.616Z,55.44
2023-01-02T15:50:55.348Z,55.26
2023-01-02T15:53:28.870Z,55.42
2023-01-02T15:55:57.181Z,55.33
2023-01-02T15:58:32.892Z,55.50
2023-01-02T16:01:22.373Z,55.41
2023-01-02T16:04:04.622Z,55.40
2023-01-02T16:06:34.928Z,55.24
2023-01-02T16:09:05.529Z,55.35
2023-01-02T16:11:47.300Z,55.36
2023-01-02T16:14:20.591Z,55.11
2023-01-02T16:17:12.583Z,55.01
2023-01-02T16:20:00.289Z,55.44
2023-01-02T16:22:55.064Z,54.93
2023-01-02T16:25:25.583Z,54.99
2023-01-02T16:27:53.019Z,55.22
2023-01-02T16:30:23.430Z,54.99
2023-01-02T16:32:51.560Z,55.24
2023-01-02T16:35:30.948Z,54.97
2023-01-02T16:38:00.711Z,55.20
2023-01-02T16:41:01.105Z,54.96
2023-01-02T16:43:20.056Z,55.06
2023-01-02T16:45:49.567Z,54.90
2023-01-02T16:48:29.777Z,54.80
2023-01-02T16:50:58.599Z,54.83
2023-01-02T16:53:30.333Z,55.10
2023-01-02T16:55:58.500Z,54.98
2023-01-02T16:58:26.023Z,54.79
2023-01-02T17:00:55.784Z,54.54
2023-01-02T17:03:25.743Z,54.64
2023-01-02T17:06:01.052Z,54.60
2023-01-02T17:08:33.699Z,54.27
2023-01-02T17:11:01.655Z,54.63
2023-01-02T17:13:29.999Z,54.49
2023-01-02T17:15:58.059Z,54.56
2023-01-02T17:18:25.672Z,54.32
2023-01-02T17:20:53.061Z,54.38
2023-01-02T17:23:21.093Z,54.11
2023-01-02T17:25:48.608Z,54.53
2023-01-02T17:28:16.365Z,54.45
2023-01-02T17:30:46.217Z,54.53
2023-01-02T17:33:13.902Z,54.46
2023-01-02T17:35:41.694Z,54.29
2023-01-02T17:38:09.075Z,54.51
2023-01-02T17:40:37.496Z,54.37
2023-01-02T17:43:05.690Z,54.08
2023-01-02T17:45:33.356Z,54.25
2023-01-02T17:48:07.869Z,54.46
2023-01-02T17:50:37.646Z,54.43
2023-01-02T17:53:07.984Z,54.59
2023-01-02T17:55:35.594Z,54.44
2023-01-02T17:58:03.878Z,54.43
2023-01-02T18:00:31.309Z,54.33
2023-01-02T18:02:58.796Z,54.60
2023-01-02T18:05:26.176Z,54.37
2023-01-02T18:07:53.487Z,54.31
2023-01-02T18:10:21.786Z,54.40
2023-01-02T18:12:51.204Z,54.24
2023-01-02T18:15:21.561Z,54.52
2023-01-02T18:17:49.859Z,54.11
2023-01-02T18:20:19.872Z,54.15
2023-01-02T18:22:50.831Z,54.33
2023-01-02T18:25:27.596Z,54.37
2023-01-02T18:28:17.805Z,54.34
2023-01-02T18:30:45.389Z,54.09
2023-01-02T18:33:15.788Z,53.94
2023-01-02T18:35:57.177Z,54.28
2023-01-02T18:38:34.413Z,54.30
2023-01-02T18:41:31.790Z,54.17
2023-01-02T18:44:18.075Z,54.04
2023-01-02T18:47:03.054Z,54.10
2023-01-02T18:49:42.529Z,54.05
2023-01-02T18:52:24.265Z,53.89
2023-01-02T18:54:59.467Z,54.11
2023-01-02T18:57:31.992Z,54.12
2023-01-02T19:00:21.496Z,54.08
2023-01-02T19:03:03.939Z,54.08
2023-01-02T19:05:44.200Z,54.13
2023-01-02T19:08:17.375Z,54.08
2023-01-02T19:10:56.146Z,54.08
2023-01-02T19:13:35.085Z,54.36
2023-01-02T19:16:05.677Z,54.08
2023-01-02T19:18:37.388Z,54.21
2023-01-02T19:21:33.372Z,53.99
2023-01-02T19:24:22.683Z,54.05
2023-01-02T19:26:55.496Z,54.03
2023-01-02T19:29:29.684Z,54.16
2023-01-02T19:32:18.609Z,53.75
2023-01-02T19:34:53.514Z,53.79
2023-01-02T19:37:26.737Z,53.57
2023-01-02T19:39:57.491Z,53.75
2023-01-02T19:42:28.268Z,53.68
2023-01-02T19:45:05.349Z,54.01
2023-01-02T19:47:35.886Z,53.90
2023-01-02T19:50:06.791Z,53.83
2023-01-02T19:52:34.132Z,53.72
2023-01-02T19:55:02.355Z,53.85
2023-01-02T19:57:29.798Z,53.82
2023-01-02T19:59:59.091Z,53.98
2023-01-02T20:02:29.540Z,54.03
2023-01-02T20:04:56.941Z,54.06
2023-01-02T20:07:25.884Z,54.03
2023-01-02T20:09:53.366Z,53.94
2023-01-02T20:12:30.419Z,54.17
2023-01-02T20:15:19.553Z,54.26
2023-01-02T20:17:47.307Z,54.12
2023-01-02T20:20:18.993Z,54.26
2023-01-02T20:22:47.849Z,54.00
2023-01-02T20:25:17.489Z,54.16
2023-01-02T20:27:45.019Z,53.85
2023-01-02T20:30:12.857Z,54.37
2023-01-02T20:32:40.199Z,54.09
2023-01-02T20:35:08.128Z,53.89
2023-01-02T20:37:35.588Z,54.32
2023-01-02T20:40:03.095Z,54.02
2023-01-02T20:42:30.539Z,54.02
2023-01-02T20:44:57.844Z,54.32
2023-01-02T20:47:25.230Z,53.88
2023-01-02T20:49:52.559Z,54.09
2023-01-02T20:52:20.351Z,53.98
2023-01-02T20:57:20.157Z,54.10
2023-01-02T20:59:47.612Z,54.02
2023-01-02T21:02:15.159Z,53.88
2023-01-02T21:04:42.654Z,53.74
2023-01-02T21:07:10.013Z,53.78
2023-01-02T21:09:37.387Z,53.87
2023-01-02T21:12:24.920Z,53.84
2023-01-02T21:14:52.223Z,53.75
2023-01-02T21:17:19.488Z,53.88
2023-01-02T21:19:46.896Z,53.73
2023-01-02T21:22:14.296Z,53.78
2023-01-02T21:24:41.653Z,54.00
2023-01-02T21:27:13.003Z,53.79
2023-01-02T21:29:41.312Z,53.59
2023-01-02T21:32:08.736Z,54.02
2023-01-02T21:34:36.077Z,53.63
2023-01-02T21:37:03.474Z,53.55
2023-01-02T21:39:30.863Z,53.76
2023-01-02T21:42:16.475Z,53.65
2023-01-02T21:44:47.233Z,53.50
2023-01-02T21:47:16.340Z,53.27
2023-01-02T21:49:44.747Z,53.55
2023-01-02T21:52:12.257Z,53.55
2023-01-02T21:54:39.587Z,53.54
2023-01-02T21:57:07.265Z,53.67
2023-01-02T21:59:34.621Z,53.58
2023-01-02T22:02:04.135Z,53.55
2023-01-02T22:04:32.394Z,53.51
2023-01-02T22:09:47.150Z,53.57
2023-01-02T22:12:14.460Z,53.08
2023-01-02T22:14:43.127Z,53.68
2023-01-02T22:17:11.217Z,53.67
2023-01-02T22:19:38.814Z,53.45
2023-01-02T22:22:06.502Z,53.31
2023-01-02T22:24:35.639Z,53.39
2023-01-02T22:27:09.902Z,53.53
2023-01-02T22:30:18.573Z,53.61
2023-01-02T22:32:24.762Z,53.08
2023-01-02T22:34:52.741Z,53.36
2023-01-02T22:37:22.707Z,53.22
2023-01-02T22:39:51.056Z,53.39
2023-01-02T22:45:48.757Z,53.15
2023-01-02T22:48:26.575Z,53.19
2023-01-02T22:50:56.813Z,53.40
2023-01-02T22:53:30.201Z,53.28
2023-01-02T22:55:58.563Z,53.39
2023-01-02T22:58:26.091Z,53.18
2023-01-02T23:01:04.761Z,53.38
2023-01-02T23:03:41.505Z,53.34
2023-01-02T23:06:09.327Z,53.18
2023-01-02T23:08:37.385Z,52.98
2023-01-02T23:11:06.026Z,53.01
2023-01-02T23:13:35.207Z,53.07
2023-01-02T23:16:21.754Z,53.17
2023-01-02T23:19:07.788Z,53.02
2023-01-02T23:21:37.415Z,52.97
2023-01-02T23:24:06.502Z,52.98
2023-01-02T23:26:41.382Z,53.14
2023-01-02T23:29:09.479Z,53.30
2023-01-02T23:31:39.410Z,53.08
2023-01-02T23:34:08.116Z,52.67
2023-01-02T23:36:36.328Z,52.80
2023-01-02T23:39:05.472Z,52.72
2023-01-02T23:41:33.147Z,53.10
2023-01-02T23:44:00.589Z,52.96
2023-01-02T23:46:28.130Z,53.07
2023-01-02T23:48:55.571Z,53.11
2023-01-02T23:51:22.992Z,52.84
2023-01-02T23:53:50.411Z,53.03
2023-01-02T23:56:29.209Z,53.00
2023-01-02T23:58:59.050Z,53.25
